sensor_id;sensor_type;location;lat;lon;timestamp;pressure;altitude;pressure_sealevel;temperature;humidity
36062;BME280;22123;52.412;20.970;2022-10-16T00:01:53;100785.13;;;12.40;100.00
36062;BME280;22123;52.412;20.970;2022-10-16T00:04:18;100788.69;;;12.40;100.00
36062;BME280;22123;52.412;20.970;2022-10-16T00:06:43;100784.31;;;12.39;100.00
36062;BME280;22123;52.412;20.970;2022-10-16T00:09:09;100787.84;;;12.40;100.00
36062;BME280;22123;52.412;20.970;2022-10-16T00:11:34;100786.19;;;12.39;100.00
36062;BME280;22123;52.412;20.970;2022-10-16T00:14:02;100780.78;;;12.39;100.00
36062;BME280;22123;52.412;20.970;2022-10-16T00:16:28;100780.41;;;12.42;100.00
36062;BME280;22123;52.412;20.970;2022-10-16T00:18:53;100785.81;;;12.42;100.00
36062;BME280;22123;52.412;20.970;2022-10-16T00:21:19;100780.59;;;12.40;100.00
36062;BME280;22123;52.412;20.970;2022-10-16T00:23:45;100776.03;;;12.41;100.00
36062;BME280;22123;52.412;20.970;2022-10-16T00:26:13;100776.88;;;12.41;100.00
36062;BME280;22123;52.412;20.970;2022-10-16T00:28:38;100773.31;;;12.41;100.00
36062;BME280;22123;52.412;20.970;2022-10-16T00:31:08;100783.28;;;12.40;100.00
36062;BME280;22123;52.412;20.970;2022-10-16T00:33:34;100780.59;;;12.40;100.00
36062;BME280;22123;52.412;20.970;2022-10-16T00:36:00;100773.50;;;12.39;100.00
36062;BME280;22123;52.412;20.970;2022-10-16T00:38:26;100789.88;;;12.38;100.00
36062;BME280;22123;52.412;20.970;2022-10-16T00:40:51;100790.06;;;12.36;100.00
36062;BME280;22123;52.412;20.970;2022-10-16T00:45:57;100790.72;;;12.38;100.00
36062;BME280;22123;52.412;20.970;2022-10-16T00:48:22;100800.50;;;12.39;100.00
36062;BME280;22123;52.412;20.970;2022-10-16T00:50:47;100795.09;;;12.39;100.00
36062;BME280;22123;52.412;20.970;2022-10-16T00:53:13;100801.50;;;12.38;100.00
36062;BME280;22123;52.412;20.970;2022-10-16T00:55:39;100799.84;;;12.37;100.00
36062;BME280;22123;52.412;20.970;2022-10-16T00:58:04;100807.94;;;12.37;100.00
36062;BME280;22123;52.412;20.970;2022-10-16T01:00:30;100802.56;;;12.37;100.00
36062;BME280;22123;52.412;20.970;2022-10-16T01:02:57;100809.97;;;12.35;100.00
36062;BME280;22123;52.412;20.970;2022-10-16T01:05:22;100815.38;;;12.35;100.00
36062;BME280;22123;52.412;20.970;2022-10-16T01:20:48;100812.66;;;12.35;100.00
36062;BME280;22123;52.412;20.970;2022-10-16T01:28:26;100817.72;;;12.38;100.00
36062;BME280;22123;52.412;20.970;2022-10-16T01:30:53;100816.88;;;12.38;100.00
36062;BME280;22123;52.412;20.970;2022-10-16T01:33:30;100822.94;;;12.40;100.00
36062;BME280;22123;52.412;20.970;2022-10-16T01:36:02;100823.78;;;12.40;100.00
36062;BME280;22123;52.412;20.970;2022-10-16T01:38:37;100815.53;;;12.42;100.00
36062;BME280;22123;52.412;20.970;2022-10-16T01:41:14;100821.75;;;12.42;100.00
36062;BME280;22123;52.412;20.970;2022-10-16T01:43:56;100822.78;;;12.41;100.00
36062;BME280;22123;52.412;20.970;2022-10-16T01:46:23;100829.66;;;12.44;100.00
36062;BME280;22123;52.412;20.970;2022-10-16T01:48:49;100824.97;;;12.46;100.00
36062;BME280;22123;52.412;20.970;2022-10-16T01:51:16;100816.84;;;12.46;100.00
36062;BME280;22123;52.412;20.970;2022-10-16T01:53:43;100812.28;;;12.46;100.00
36062;BME280;22123;52.412;20.970;2022-10-16T01:56:11;100809.75;;;12.45;100.00
36062;BME280;22123;52.412;20.970;2022-10-16T01:58:42;100819.56;;;12.46;100.00
36062;BME280;22123;52.412;20.970;2022-10-16T02:01:09;100819.72;;;12.44;100.00
36062;BME280;22123;52.412;20.970;2022-10-16T02:03:36;100820.75;;;12.43;100.00
36062;BME280;22123;52.412;20.970;2022-10-16T02:06:02;100814.69;;;12.41;100.00
36062;BME280;22123;52.412;20.970;2022-10-16T02:08:28;100819.22;;;12.41;100.00
36062;BME280;22123;52.412;20.970;2022-10-16T02:10:55;100821.28;;;12.39;100.00
36062;BME280;22123;52.412;20.970;2022-10-16T02:13:26;100828.69;;;12.37;100.00
36062;BME280;22123;52.412;20.970;2022-10-16T02:15:53;100823.28;;;12.37;100.00
36062;BME280;22123;52.412;20.970;2022-10-16T02:18:18;100819.09;;;12.34;100.00
36062;BME280;22123;52.412;20.970;2022-10-16T02:20:48;100824.50;;;12.34;100.00
36062;BME280;22123;52.412;20.970;2022-10-16T02:23:17;100814.72;;;12.33;100.00
36062;BME280;22123;52.412;20.970;2022-10-16T02:25:44;100824.00;;;12.30;100.00
36062;BME280;22123;52.412;20.970;2022-10-16T02:28:17;100819.78;;;12.28;100.00
36062;BME280;22123;52.412;20.970;2022-10-16T02:30:49;100814.38;;;12.28;100.00
36062;BME280;22123;52.412;20.970;2022-10-16T02:33:16;100825.19;;;12.28;100.00
36062;BME280;22123;52.412;20.970;2022-10-16T02:35:43;100821.66;;;12.27;100.00
36062;BME280;22123;52.412;20.970;2022-10-16T02:38:09;100823.34;;;12.28;100.00
36062;BME280;22123;52.412;20.970;2022-10-16T02:40:36;100822.66;;;12.26;100.00
36062;BME280;22123;52.412;20.970;2022-10-16T02:43:02;100822.66;;;12.26;100.00
36062;BME280;22123;52.412;20.970;2022-10-16T02:45:28;100824.53;;;12.26;100.00
36062;BME280;22123;52.412;20.970;2022-10-16T02:47:54;100817.25;;;12.26;100.00
36062;BME280;22123;52.412;20.970;2022-10-16T02:50:19;100822.31;;;12.29;100.00
36062;BME280;22123;52.412;20.970;2022-10-16T02:52:44;100833.97;;;12.30;100.00
36062;BME280;22123;52.412;20.970;2022-10-16T02:55:10;100825.69;;;12.31;100.00
36062;BME280;22123;52.412;20.970;2022-10-16T02:57:35;100823.00;;;12.31;100.00
36062;BME280;22123;52.412;20.970;2022-10-16T03:00:03;100823.00;;;12.31;100.00
36062;BME280;22123;52.412;20.970;2022-10-16T03:02:28;100830.22;;;12.31;100.00
36062;BME280;22123;52.412;20.970;2022-10-16T03:04:53;100833.97;;;12.30;100.00
36062;BME280;22123;52.412;20.970;2022-10-16T03:07:19;100830.41;;;12.29;100.00
36062;BME280;22123;52.412;20.970;2022-10-16T03:09:44;100833.97;;;12.30;100.00
36062;BME280;22123;52.412;20.970;2022-10-16T03:12:09;100839.38;;;12.30;100.00
36062;BME280;22123;52.412;20.970;2022-10-16T03:14:36;100835.81;;;12.29;100.00
36062;BME280;22123;52.412;20.970;2022-10-16T03:17:02;100848.13;;;12.32;100.00
36062;BME280;22123;52.412;20.970;2022-10-16T03:19:27;100851.66;;;12.32;100.00
36062;BME280;22123;52.412;20.970;2022-10-16T03:21:52;100850.63;;;12.33;100.00
36062;BME280;22123;52.412;20.970;2022-10-16T03:24:17;100856.22;;;12.32;100.00
36062;BME280;22123;52.412;20.970;2022-10-16T03:26:43;100850.81;;;12.32;100.00
36062;BME280;22123;52.412;20.970;2022-10-16T03:29:08;100852.88;;;12.30;100.00
36062;BME280;22123;52.412;20.970;2022-10-16T03:31:33;100850.16;;;12.30;100.00
36062;BME280;22123;52.412;20.970;2022-10-16T03:33:59;100850.16;;;12.30;100.00
36062;BME280;22123;52.412;20.970;2022-10-16T03:36:24;100853.69;;;12.30;100.00
36062;BME280;22123;52.412;20.970;2022-10-16T03:38:49;100851.81;;;12.31;100.00
36062;BME280;22123;52.412;20.970;2022-10-16T03:41:15;100856.56;;;12.29;100.00
36062;BME280;22123;52.412;20.970;2022-10-16T03:43:40;100859.09;;;12.30;100.00
36062;BME280;22123;52.412;20.970;2022-10-16T03:46:05;100864.66;;;12.29;100.00
36062;BME280;22123;52.412;20.970;2022-10-16T03:48:31;100859.25;;;12.29;100.00
36062;BME280;22123;52.412;20.970;2022-10-16T03:50:57;100856.75;;;12.27;100.00
36062;BME280;22123;52.412;20.970;2022-10-16T03:53:22;100865.66;;;12.28;100.00
36062;BME280;22123;52.412;20.970;2022-10-16T03:55:47;100856.75;;;12.27;100.00
36062;BME280;22123;52.412;20.970;2022-10-16T03:58:13;100862.31;;;12.26;100.00
36062;BME280;22123;52.412;20.970;2022-10-16T04:00:41;100872.44;;;12.24;100.00
36062;BME280;22123;52.412;20.970;2022-10-16T04:03:07;100875.13;;;12.24;100.00
36062;BME280;22123;52.412;20.970;2022-10-16T04:05:32;100872.59;;;12.22;100.00
36062;BME280;22123;52.412;20.970;2022-10-16T04:07:57;100867.72;;;12.17;100.00
36062;BME280;22123;52.412;20.970;2022-10-16T04:10:22;100862.84;;;12.13;100.00
36062;BME280;22123;52.412;20.970;2022-10-16T04:12:48;100859.00;;;12.07;100.00
36062;BME280;22123;52.412;20.970;2022-10-16T04:15:13;100865.91;;;12.02;100.00
36062;BME280;22123;52.412;20.970;2022-10-16T04:17:38;100877.22;;;11.97;100.00
36062;BME280;22123;52.412;20.970;2022-10-16T04:20:04;100877.88;;;11.91;100.00
36062;BME280;22123;52.412;20.970;2022-10-16T04:22:29;100878.41;;;11.86;100.00
36062;BME280;22123;52.412;20.970;2022-10-16T04:24:54;100881.59;;;11.81;100.00
36062;BME280;22123;52.412;20.970;2022-10-16T04:27:19;100873.00;;;11.78;100.00
36062;BME280;22123;52.412;20.970;2022-10-16T04:29:45;100880.59;;;11.74;100.00
36062;BME280;22123;52.412;20.970;2022-10-16T04:32:10;100882.97;;;11.69;100.00
36062;BME280;22123;52.412;20.970;2022-10-16T04:34:35;100882.44;;;11.65;100.00
36062;BME280;22123;52.412;20.970;2022-10-16T04:37:01;100880.94;;;11.63;100.00
36062;BME280;22123;52.412;20.970;2022-10-16T04:39:26;100881.59;;;11.57;100.00
36062;BME280;22123;52.412;20.970;2022-10-16T04:41:51;100882.28;;;11.51;100.00
36062;BME280;22123;52.412;20.970;2022-10-16T04:44:16;100879.41;;;11.44;100.00
36062;BME280;22123;52.412;20.970;2022-10-16T04:46:42;100892.72;;;11.37;100.00
36062;BME280;22123;52.412;20.970;2022-10-16T04:49:07;100892.53;;;11.30;100.00
36062;BME280;22123;52.412;20.970;2022-10-16T04:51:32;100896.75;;;11.25;100.00
36062;BME280;22123;52.412;20.970;2022-10-16T04:53:58;100894.72;;;11.19;100.00
36062;BME280;22123;52.412;20.970;2022-10-16T04:56:23;100908.88;;;11.12;100.00
36062;BME280;22123;52.412;20.970;2022-10-16T04:58:49;100900.59;;;11.06;100.00
36062;BME280;22123;52.412;20.970;2022-10-16T05:01:15;100903.78;;;11.01;100.00
36062;BME280;22123;52.412;20.970;2022-10-16T05:03:41;100896.38;;;10.95;100.00
36062;BME280;22123;52.412;20.970;2022-10-16T05:06:06;100899.22;;;10.93;100.00
36062;BME280;22123;52.412;20.970;2022-10-16T05:08:31;100905.06;;;10.89;100.00
36062;BME280;22123;52.412;20.970;2022-10-16T05:10:57;100911.66;;;10.86;100.00
36062;BME280;22123;52.412;20.970;2022-10-16T05:13:22;100916.34;;;10.84;100.00
36062;BME280;22123;52.412;20.970;2022-10-16T05:15:48;100914.81;;;10.82;100.00
36062;BME280;22123;52.412;20.970;2022-10-16T05:18:14;100920.53;;;10.78;100.00
36062;BME280;22123;52.412;20.970;2022-10-16T05:20:39;100924.53;;;10.74;100.00
36062;BME280;22123;52.412;20.970;2022-10-16T05:23:04;100932.13;;;10.71;100.00
36062;BME280;22123;52.412;20.970;2022-10-16T05:25:30;100936.69;;;10.70;100.00
36062;BME280;22123;52.412;20.970;2022-10-16T05:27:55;100931.28;;;10.70;100.00
36062;BME280;22123;52.412;20.970;2022-10-16T05:30:20;100925.56;;;10.73;100.00
36062;BME280;22123;52.412;20.970;2022-10-16T05:32:46;100927.06;;;10.76;100.00
36062;BME280;22123;52.412;20.970;2022-10-16T05:35:12;100933.00;;;10.79;100.00
36062;BME280;22123;52.412;20.970;2022-10-16T05:37:37;100923.06;;;10.80;100.00
36062;BME280;22123;52.412;20.970;2022-10-16T05:40:02;100919.19;;;10.83;100.00
36062;BME280;22123;52.412;20.970;2022-10-16T05:42:29;100919.19;;;10.83;100.00
36062;BME280;22123;52.412;20.970;2022-10-16T05:44:54;100926.13;;;10.85;100.00
36062;BME280;22123;52.412;20.970;2022-10-16T05:47:20;100930.66;;;10.85;100.00
36062;BME280;22123;52.412;20.970;2022-10-16T05:49:46;100928.81;;;10.85;100.00
36062;BME280;22123;52.412;20.970;2022-10-16T05:52:11;100936.91;;;10.85;100.00
36062;BME280;22123;52.412;20.970;2022-10-16T05:54:36;100932.19;;;10.87;100.00
36062;BME280;22123;52.412;20.970;2022-10-16T05:57:01;100936.56;;;10.88;100.00
36062;BME280;22123;52.412;20.970;2022-10-16T05:59:27;100944.47;;;10.90;100.00
36062;BME280;22123;52.412;20.970;2022-10-16T06:01:52;100943.47;;;10.91;100.00
36062;BME280;22123;52.412;20.970;2022-10-16T06:04:18;100942.47;;;10.92;100.00
36062;BME280;22123;52.412;20.970;2022-10-16T06:06:43;100946.69;;;10.94;100.00
36062;BME280;22123;52.412;20.970;2022-10-16T06:09:09;100949.22;;;10.96;100.00
36062;BME280;22123;52.412;20.970;2022-10-16T06:11:34;100949.91;;;10.98;100.00
36062;BME280;22123;52.412;20.970;2022-10-16T06:14:00;100950.25;;;11.03;100.00
36062;BME280;22123;52.412;20.970;2022-10-16T06:16:32;100962.06;;;11.10;100.00
36062;BME280;22123;52.412;20.970;2022-10-16T06:18:58;100964.94;;;11.17;100.00
36062;BME280;22123;52.412;20.970;2022-10-16T06:21:25;100962.59;;;11.22;100.00
36062;BME280;22123;52.412;20.970;2022-10-16T06:23:50;100963.63;;;11.29;100.00
36062;BME280;22123;52.412;20.970;2022-10-16T06:26:17;100960.28;;;11.36;100.00
36062;BME280;22123;52.412;20.970;2022-10-16T06:28:43;100946.97;;;11.42;100.00
36062;BME280;22123;52.412;20.970;2022-10-16T06:31:08;100965.88;;;11.51;100.00
36062;BME280;22123;52.412;20.970;2022-10-16T06:33:35;100973.97;;;11.59;100.00
36062;BME280;22123;52.412;20.970;2022-10-16T06:36:01;100966.22;;;11.64;100.00
36062;BME280;22123;52.412;20.970;2022-10-16T06:38:26;100973.50;;;11.72;100.00
36062;BME280;22123;52.412;20.970;2022-10-16T06:40:53;100972.97;;;11.76;100.00
36062;BME280;22123;52.412;20.970;2022-10-16T06:43:18;100972.31;;;11.82;100.00
36062;BME280;22123;52.412;20.970;2022-10-16T06:45:43;100977.19;;;11.87;100.00
36062;BME280;22123;52.412;20.970;2022-10-16T06:48:14;100980.59;;;11.97;100.00
36062;BME280;22123;52.412;20.970;2022-10-16T06:50:40;100976.03;;;12.06;100.00
36062;BME280;22123;52.412;20.970;2022-10-16T06:53:05;100981.25;;;12.16;100.00
36062;BME280;22123;52.412;20.970;2022-10-16T06:55:30;100975.88;;;12.24;100.00
36062;BME280;22123;52.412;20.970;2022-10-16T06:57:55;100966.91;;;12.32;100.00
36062;BME280;22123;52.412;20.970;2022-10-16T07:00:21;100976.34;;;12.44;100.00
36062;BME280;22123;52.412;20.970;2022-10-16T07:02:46;100983.75;;;12.50;100.00
36062;BME280;22123;52.412;20.970;2022-10-16T07:05:11;100979.66;;;12.63;100.00
36062;BME280;22123;52.412;20.970;2022-10-16T07:07:36;100985.03;;;12.79;100.00
36062;BME280;22123;52.412;20.970;2022-10-16T07:10:02;100984.66;;;12.91;100.00
36062;BME280;22123;52.412;20.970;2022-10-16T07:12:27;100986.47;;;12.98;100.00
36062;BME280;22123;52.412;20.970;2022-10-16T07:14:52;100990.31;;;13.04;100.00
36062;BME280;22123;52.412;20.970;2022-10-16T07:17:19;101002.13;;;13.11;100.00
36062;BME280;22123;52.412;20.970;2022-10-16T07:19:46;101009.22;;;13.12;100.00
36062;BME280;22123;52.412;20.970;2022-10-16T07:22:12;101001.59;;;13.16;100.00
36062;BME280;22123;52.412;20.970;2022-10-16T07:24:37;101013.91;;;13.18;100.00
36062;BME280;22123;52.412;20.970;2022-10-16T07:27:02;101008.16;;;13.21;100.00
36062;BME280;22123;52.412;20.970;2022-10-16T07:29:28;100994.63;;;13.21;100.00
36062;BME280;22123;52.412;20.970;2022-10-16T07:31:53;100995.66;;;13.20;100.00
36062;BME280;22123;52.412;20.970;2022-10-16T07:34:18;100990.06;;;13.22;100.00
36062;BME280;22123;52.412;20.970;2022-10-16T07:36:47;100991.09;;;13.21;100.00
36062;BME280;22123;52.412;20.970;2022-10-16T07:39:12;101001.38;;;13.26;100.00
36062;BME280;22123;52.412;20.970;2022-10-16T07:41:37;100993.91;;;13.28;100.00
36062;BME280;22123;52.412;20.970;2022-10-16T07:44:03;100993.56;;;13.31;100.00
36062;BME280;22123;52.412;20.970;2022-10-16T07:46:28;100985.81;;;13.36;100.00
36062;BME280;22123;52.412;20.970;2022-10-16T07:48:54;100979.13;;;13.47;100.00
36062;BME280;22123;52.412;20.970;2022-10-16T07:51:20;100963.69;;;13.55;100.00
36062;BME280;22123;52.412;20.970;2022-10-16T07:53:46;100963.28;;;13.67;100.00
36062;BME280;22123;52.412;20.970;2022-10-16T07:56:12;100969.28;;;13.77;100.00
36062;BME280;22123;52.412;20.970;2022-10-16T07:58:37;100975.47;;;13.86;100.00
36062;BME280;22123;52.412;20.970;2022-10-16T08:01:03;100987.44;;;13.91;100.00
36062;BME280;22123;52.412;20.970;2022-10-16T08:03:29;101001.94;;;13.99;100.00
36062;BME280;22123;52.412;20.970;2022-10-16T08:05:54;101008.69;;;14.03;100.00
36062;BME280;22123;52.412;20.970;2022-10-16T08:08:21;101016.78;;;14.03;100.00
36062;BME280;22123;52.412;20.970;2022-10-16T08:10:46;101025.78;;;14.03;100.00
36062;BME280;22123;52.412;20.970;2022-10-16T08:13:12;101023.53;;;14.07;100.00
36062;BME280;22123;52.412;20.970;2022-10-16T08:15:39;101034.00;;;14.10;100.00
36062;BME280;22123;52.412;20.970;2022-10-16T08:18:05;101036.16;;;14.15;100.00
36062;BME280;22123;52.412;20.970;2022-10-16T08:20:31;101038.34;;;14.19;100.00
36062;BME280;22123;52.412;20.970;2022-10-16T08:22:56;101032.56;;;14.22;100.00
36062;BME280;22123;52.412;20.970;2022-10-16T08:25:22;101022.38;;;14.24;100.00
36062;BME280;22123;52.412;20.970;2022-10-16T08:27:48;101024.53;;;14.29;100.00
36062;BME280;22123;52.412;20.970;2022-10-16T08:30:13;101021.63;;;14.31;100.00
36062;BME280;22123;52.412;20.970;2022-10-16T08:32:38;101028.75;;;14.32;100.00
36062;BME280;22123;52.412;20.970;2022-10-16T08:35:04;101027.72;;;14.33;100.00
36062;BME280;22123;52.412;20.970;2022-10-16T08:37:29;101031.06;;;14.35;100.00
36062;BME280;22123;52.412;20.970;2022-10-16T08:39:55;101032.75;;;14.36;100.00
36062;BME280;22123;52.412;20.970;2022-10-16T08:47:24;101044.03;;;14.63;100.00
36062;BME280;22123;52.412;20.970;2022-10-16T08:49:58;101042.00;;;14.65;100.00
36062;BME280;22123;52.412;20.970;2022-10-16T08:52:25;101036.03;;;14.69;100.00
36062;BME280;22123;52.412;20.970;2022-10-16T08:54:53;101052.75;;;14.73;100.00
36062;BME280;22123;52.412;20.970;2022-10-16T08:57:20;101044.06;;;14.77;100.00
36062;BME280;22123;52.412;20.970;2022-10-16T08:59:46;101044.53;;;14.81;100.00
36062;BME280;22123;52.412;20.970;2022-10-16T09:02:32;101044.72;;;14.80;100.00
36062;BME280;22123;52.412;20.970;2022-10-16T09:07:39;101049.38;;;14.86;100.00
36062;BME280;22123;52.412;20.970;2022-10-16T09:10:16;101033.81;;;14.88;100.00
36062;BME280;22123;52.412;20.970;2022-10-16T09:12:49;101031.72;;;14.90;100.00
36062;BME280;22123;52.412;20.970;2022-10-16T09:22:55;101035.38;;;15.12;100.00
36062;BME280;22123;52.412;20.970;2022-10-16T09:25:25;101034.81;;;15.17;100.00
36062;BME280;22123;52.412;20.970;2022-10-16T09:27:52;101034.63;;;15.18;100.00
36062;BME280;22123;52.412;20.970;2022-10-16T09:30:18;101037.41;;;15.25;100.00
36062;BME280;22123;52.412;20.970;2022-10-16T09:32:44;101035.63;;;15.32;100.00
36062;BME280;22123;52.412;20.970;2022-10-16T09:35:15;101035.91;;;15.37;100.00
36062;BME280;22123;52.412;20.970;2022-10-16T09:37:42;101022.16;;;15.39;100.00
36062;BME280;22123;52.412;20.970;2022-10-16T09:40:12;101037.41;;;15.40;100.00
36062;BME280;22123;52.412;20.970;2022-10-16T09:42:38;101033.28;;;15.44;100.00
36062;BME280;22123;52.412;20.970;2022-10-16T09:45:04;101031.41;;;15.44;100.00
36062;BME280;22123;52.412;20.970;2022-10-16T09:47:30;101031.41;;;15.44;100.00
36062;BME280;22123;52.412;20.970;2022-10-16T09:50:00;101039.78;;;15.50;100.00
36062;BME280;22123;52.412;20.970;2022-10-16T09:52:32;101041.97;;;15.54;100.00
36062;BME280;22123;52.412;20.970;2022-10-16T09:55:02;101043.91;;;15.60;100.00
36062;BME280;22123;52.412;20.970;2022-10-16T09:57:28;101043.75;;;15.84;100.00
36062;BME280;22123;52.412;20.970;2022-10-16T09:59:55;101038.53;;;16.04;100.00
36062;BME280;22123;52.412;20.970;2022-10-16T10:04:53;101042.53;;;16.29;100.00
36062;BME280;22123;52.412;20.970;2022-10-16T10:09:51;101029.66;;;16.38;100.00
36062;BME280;22123;52.412;20.970;2022-10-16T10:12:21;101035.09;;;16.38;100.00
36062;BME280;22123;52.412;20.970;2022-10-16T10:14:47;101026.34;;;16.43;100.00
36062;BME280;22123;52.412;20.970;2022-10-16T10:19:49;101028.19;;;16.42;100.00
36062;BME280;22123;52.412;20.970;2022-10-16T10:22:19;101014.16;;;16.39;100.00
36062;BME280;22123;52.412;20.970;2022-10-16T10:27:55;101007.72;;;16.40;100.00
36062;BME280;22123;52.412;20.970;2022-10-16T10:30:19;101009.34;;;16.34;100.00
36062;BME280;22123;52.412;20.970;2022-10-16T10:45:37;101014.81;;;16.41;100.00
36062;BME280;22123;52.412;20.970;2022-10-16T10:50:39;101006.09;;;16.52;100.00
36062;BME280;22123;52.412;20.970;2022-10-16T10:56:14;101001.97;;;16.56;100.00
36062;BME280;22123;52.412;20.970;2022-10-16T11:08:37;101029.72;;;16.80;100.00
36062;BME280;22123;52.412;20.970;2022-10-16T11:11:08;101017.81;;;16.81;100.00
36062;BME280;22123;52.412;20.970;2022-10-16T11:16:01;101009.38;;;17.04;100.00
36062;BME280;22123;52.412;20.970;2022-10-16T11:18:40;101004.81;;;17.11;100.00
36062;BME280;22123;52.412;20.970;2022-10-16T11:21:08;101005.84;;;17.10;100.00
36062;BME280;22123;52.412;20.970;2022-10-16T11:23:55;101004.19;;;17.09;100.00
36062;BME280;22123;52.412;20.970;2022-10-16T11:26:30;101015.47;;;17.06;100.00
36062;BME280;22123;52.412;20.970;2022-10-16T11:28:58;101016.06;;;17.01;100.00
36062;BME280;22123;52.412;20.970;2022-10-16T11:31:29;101015.84;;;16.96;100.00
36062;BME280;22123;52.412;20.970;2022-10-16T11:36:37;101029.25;;;17.04;100.00
36062;BME280;22123;52.412;20.970;2022-10-16T11:39:10;101016.94;;;17.09;100.00
36062;BME280;22123;52.412;20.970;2022-10-16T11:41:39;101015.31;;;17.21;100.00
36062;BME280;22123;52.412;20.970;2022-10-16T11:44:24;101020.41;;;17.31;100.00
36062;BME280;22123;52.412;20.970;2022-10-16T11:49:24;101015.16;;;17.29;100.00
36062;BME280;22123;52.412;20.970;2022-10-16T11:51:55;101016.59;;;17.25;100.00
36062;BME280;22123;52.412;20.970;2022-10-16T11:56:57;101007.56;;;17.18;100.00
36062;BME280;22123;52.412;20.970;2022-10-16T11:59:27;101017.38;;;17.12;100.00
36062;BME280;22123;52.412;20.970;2022-10-16T12:09:33;101025.75;;;17.17;100.00
36062;BME280;22123;52.412;20.970;2022-10-16T12:11:57;101018.03;;;17.21;100.00
36062;BME280;22123;52.412;20.970;2022-10-16T12:16:57;101025.63;;;17.32;100.00
36062;BME280;22123;52.412;20.970;2022-10-16T12:19:25;101026.66;;;17.31;100.00
36062;BME280;22123;52.412;20.970;2022-10-16T12:21:52;101034.63;;;17.33;100.00
36062;BME280;22123;52.412;20.970;2022-10-16T12:24:20;101037.34;;;17.33;100.00
36062;BME280;22123;52.412;20.970;2022-10-16T12:26:46;101035.03;;;17.30;100.00
36062;BME280;22123;52.412;20.970;2022-10-16T12:29:14;101030.00;;;17.33;100.00
36062;BME280;22123;52.412;20.970;2022-10-16T12:31:47;101032.31;;;17.36;100.00
36062;BME280;22123;52.412;20.970;2022-10-16T12:34:19;101029.59;;;17.36;100.00
36062;BME280;22123;52.412;20.970;2022-10-16T12:36:46;101029.59;;;17.36;100.00
36062;BME280;22123;52.412;20.970;2022-10-16T12:39:18;101028.34;;;17.39;100.00
36062;BME280;22123;52.412;20.970;2022-10-16T12:41:45;101027.28;;;17.33;100.00
36062;BME280;22123;52.412;20.970;2022-10-16T12:44:21;101032.09;;;17.31;100.00
36062;BME280;22123;52.412;20.970;2022-10-16T12:46:47;101035.03;;;17.30;100.00
36062;BME280;22123;52.412;20.970;2022-10-16T12:49:23;101026.63;;;17.25;100.00
36062;BME280;22123;52.412;20.970;2022-10-16T12:51:54;101028.09;;;17.27;100.00
36062;BME280;22123;52.412;20.970;2022-10-16T12:54:21;101024.75;;;17.25;100.00
36062;BME280;22123;52.412;20.970;2022-10-16T12:57:06;101040.69;;;17.28;100.00
36062;BME280;22123;52.412;20.970;2022-10-16T13:02:09;101033.19;;;17.44;100.00
36062;BME280;22123;52.412;20.970;2022-10-16T13:04:45;101034.91;;;17.51;100.00
36062;BME280;22123;52.412;20.970;2022-10-16T13:07:48;101039.13;;;17.61;100.00
36062;BME280;22123;52.412;20.970;2022-10-16T13:10:08;101052.13;;;17.72;100.00
36062;BME280;22123;52.412;20.970;2022-10-16T13:13:03;101055.31;;;17.76;100.00
36062;BME280;22123;52.412;20.970;2022-10-16T13:20:49;101069.31;;;17.66;100.00
36062;BME280;22123;52.412;20.970;2022-10-16T13:23:21;101068.44;;;17.59;100.00
36062;BME280;22123;52.412;20.970;2022-10-16T13:28:35;101068.97;;;17.41;100.00
36062;BME280;22123;52.412;20.970;2022-10-16T13:31:01;101070.81;;;17.33;100.00
36062;BME280;22123;52.412;20.970;2022-10-16T13:33:34;101067.88;;;17.28;100.00
36062;BME280;22123;52.412;20.970;2022-10-16T13:36:00;101067.44;;;17.25;100.00
36062;BME280;22123;52.412;20.970;2022-10-16T13:38:26;101072.47;;;17.21;100.00
36062;BME280;22123;52.412;20.970;2022-10-16T13:44:07;101072.47;;;17.21;100.00
36062;BME280;22123;52.412;20.970;2022-10-16T13:46:11;101078.31;;;17.18;100.00
36062;BME280;22123;52.412;20.970;2022-10-16T13:48:37;101080.78;;;17.13;100.00
36062;BME280;22123;52.412;20.970;2022-10-16T13:51:16;101073.22;;;17.08;100.00
36062;BME280;22123;52.412;20.970;2022-10-16T13:53:41;101062.97;;;17.10;100.00
36062;BME280;22123;52.412;20.970;2022-10-16T13:56:10;101051.25;;;17.10;100.00
36062;BME280;22123;52.412;20.970;2022-10-16T13:58:35;101052.91;;;17.04;100.00
36062;BME280;22123;52.412;20.970;2022-10-16T14:01:05;101058.50;;;16.96;100.00
36062;BME280;22123;52.412;20.970;2022-10-16T14:03:30;101079.19;;;16.90;100.00
36062;BME280;22123;52.412;20.970;2022-10-16T14:06:01;101077.72;;;16.88;100.00
36062;BME280;22123;52.412;20.970;2022-10-16T14:08:27;101066.53;;;16.82;100.00
36062;BME280;22123;52.412;20.970;2022-10-16T14:10:54;101071.56;;;16.79;100.00
36062;BME280;22123;52.412;20.970;2022-10-16T14:13:21;101076.72;;;16.74;100.00
36062;BME280;22123;52.412;20.970;2022-10-16T14:15:49;101063.94;;;16.67;100.00
36062;BME280;22123;52.412;20.970;2022-10-16T14:18:20;101079.16;;;16.62;100.00
36062;BME280;22123;52.412;20.970;2022-10-16T14:20:46;101083.50;;;16.56;100.00